01:40 MTB Moetz - Alte Bdstr - Fiecht - Telfs - Moetz
Ort Moetz Datum 30.08.2015 13:31:50
Kategorie MTB
Distanz 24,94 Kilometer Steigung 312,0 Meter Gefälle -297,0 Meter
Gesamt Zeit 02:03:56 Aktiv 01:40:22 Pause 00:23:34
Durchs. Tempo 14,9 km/h Tempo max. 32,6 km/h Tempo min. 3,6 km/h
Kalorien 0 Durchs. HF 91 BPM HF max. 134 BPM
Wetter 33 °C Clear Min/Max: 31,5 °C/33,5 °C; Druck: 1020,9 mbar; Rel. Feuchte: 32,0%; Taupunkt: 14,0 °C; Niederschlag: 0,0mm
Ausrüstung Bontrager - Race X Lite MTB
Shimano - HG-XTR 7701
Schwalbe - Nobby Nic vorne
Specialized - Stumpjumper Comp
Schwalbe - Racing Ralph hinten
Notiz Moetz - Alte Bdstr - Fiecht - Telfs - Moetz ... locker, super Wetter, mit Diana Eis essen ... garmin connect
Splits
Distanz (km) Gesamt Zeit Split Zeit Split Tempo Split Tempo Höhenprofil (m)
1,00 00:07:11 00:07:11 00:07:11 8,3 47,84
2,00 00:17:28 00:10:17 00:10:17 5,8 101,08
3,00 00:21:51 00:04:22 00:04:22 13,7 18,14
4,00 00:24:43 00:02:52 00:02:53 20,8 -4,29
5,00 00:28:57 00:04:13 00:04:13 14,2 -5,67
6,00 00:33:08 00:04:10 00:04:11 14,3 11,32
7,00 00:38:27 00:05:19 00:05:20 11,3 15,30
8,00 00:41:08 00:02:40 00:02:40 22,5 -24,23
9,00 00:48:49 00:07:40 00:07:41 7,8 13,96
10,00 00:52:02 00:03:13 00:03:14 18,6 -47,44
11,00 00:57:27 00:05:24 00:05:25 11,1 -34,98
12,00 01:00:36 00:03:08 00:03:09 19,1 -63,71
13,00 01:03:22 00:02:46 00:02:46 21,7 -50,84
14,00 01:07:08 00:03:45 00:03:46 15,9 -8,12
15,00 01:10:28 00:03:20 00:03:20 18,0 0,28
16,00 01:13:19 00:02:50 00:02:51 21,1 4,15
17,00 01:16:28 00:03:09 00:03:09 19,0 2,10
18,00 01:20:17 00:03:49 00:03:50 15,7 7,69
19,00 01:23:12 00:02:54 00:02:54 20,7 2,49
20,00 01:26:02 00:02:50 00:02:51 21,1 -3,42
21,00 01:28:46 00:02:43 00:02:44 22,0 1,61
22,00 01:31:51 00:03:05 00:03:05 19,4 1,55
23,00 01:34:52 00:03:01 00:03:01 19,9 2,42
24,00 01:38:07 00:03:15 00:03:15 18,5 0,24
24,65 01:40:22 00:02:14 00:03:27 17,4 9,58